createdAt,value
2022-08-20T00:00:13.897Z,23.92
2022-08-20T00:03:01.988Z,24.15
2022-08-20T00:05:32.517Z,24.26
2022-08-20T00:07:59.715Z,24.34
2022-08-20T00:10:26.779Z,24.39
2022-08-20T00:12:53.105Z,24.36
2022-08-20T00:15:21.756Z,24.02
2022-08-20T00:17:49.910Z,23.58
2022-08-20T00:20:16.372Z,23.24
2022-08-20T00:22:42.620Z,23.03
2022-08-20T00:25:09.738Z,22.86
2022-08-20T00:27:36.523Z,22.69
2022-08-20T00:30:04.792Z,22.53
2022-08-20T00:32:31.161Z,22.39
2022-08-20T00:34:57.512Z,22.26
2022-08-20T00:37:23.683Z,22.16
2022-08-20T00:39:49.929Z,22.06
2022-08-20T00:42:16.263Z,21.97
2022-08-20T00:44:45.912Z,21.89
2022-08-20T00:47:12.118Z,21.81
2022-08-20T00:49:38.449Z,21.92
2022-08-20T00:52:06.860Z,22.38
2022-08-20T00:54:34.952Z,22.79
2022-08-20T00:57:03.326Z,23.08
2022-08-20T00:59:30.958Z,23.27
2022-08-20T01:01:58.255Z,23.41
2022-08-20T01:04:28.846Z,23.51
2022-08-20T01:06:55.613Z,23.61
2022-08-20T01:09:50.036Z,23.71
2022-08-20T01:12:09.454Z,23.81
2022-08-20T01:14:44.421Z,23.88
2022-08-20T01:17:15.174Z,23.92
2022-08-20T01:19:43.216Z,23.95
2022-08-20T01:22:28.261Z,23.96
2022-08-20T01:25:08.325Z,23.89
2022-08-20T01:27:42.741Z,23.48
2022-08-20T01:30:09.587Z,23.00
2022-08-20T01:32:35.830Z,22.64
2022-08-20T01:35:02.227Z,22.34
2022-08-20T01:37:28.887Z,22.11
2022-08-20T01:39:57.990Z,21.91
2022-08-20T01:42:32.278Z,21.75
2022-08-20T01:45:19.143Z,21.60
2022-08-20T01:47:46.033Z,21.51
2022-08-20T01:50:17.709Z,21.58
2022-08-20T01:53:03.675Z,22.05
2022-08-20T01:55:30.611Z,22.50
2022-08-20T01:57:57.203Z,22.79
2022-08-20T02:00:23.582Z,22.95
2022-08-20T02:02:50.177Z,22.80
2022-08-20T02:05:16.799Z,22.47
2022-08-20T02:07:42.994Z,22.15
2022-08-20T02:10:10.491Z,22.12
2022-08-20T02:12:36.859Z,22.48
2022-08-20T02:15:04.086Z,22.82
2022-08-20T02:17:30.473Z,23.02
2022-08-20T02:20:00.791Z,23.17
2022-08-20T02:22:44.223Z,23.33
2022-08-20T02:25:17.122Z,23.45
2022-08-20T02:27:44.793Z,23.54
2022-08-20T02:30:21.192Z,23.60
2022-08-20T02:32:56.355Z,23.64
2022-08-20T02:35:23.676Z,23.68
2022-08-20T02:37:51.594Z,23.71
2022-08-20T02:40:18.781Z,23.72
2022-08-20T02:42:57.202Z,23.70
2022-08-20T02:45:23.407Z,23.68
2022-08-20T02:47:51.809Z,23.62
2022-08-20T02:50:19.573Z,23.58
2022-08-20T02:52:48.819Z,23.54
2022-08-20T02:55:28.250Z,23.50
2022-08-20T02:57:55.763Z,23.43
2022-08-20T03:00:25.471Z,23.22
2022-08-20T03:02:51.666Z,22.73
2022-08-20T03:05:18.802Z,22.30
2022-08-20T03:07:46.267Z,21.96
2022-08-20T03:10:13.444Z,21.68
2022-08-20T03:12:40.178Z,21.47
2022-08-20T03:15:08.845Z,21.29
2022-08-20T03:17:44.305Z,21.13
2022-08-20T03:20:10.915Z,21.08
2022-08-20T03:22:37.197Z,21.46
2022-08-20T03:25:04.336Z,21.90
2022-08-20T03:27:36.277Z,22.22
2022-08-20T03:30:06.583Z,22.41
2022-08-20T03:32:32.800Z,22.59
2022-08-20T03:34:59.088Z,22.74
2022-08-20T03:37:28.614Z,22.83
2022-08-20T03:39:54.806Z,22.90
2022-08-20T03:42:21.045Z,22.96
2022-08-20T03:44:47.934Z,23.00
2022-08-20T03:47:25.180Z,23.02
2022-08-20T03:49:51.595Z,22.82
2022-08-20T03:52:17.827Z,22.41
2022-08-20T03:54:45.465Z,22.12
2022-08-20T03:57:13.090Z,22.26
2022-08-20T03:59:40.464Z,22.59
2022-08-20T04:02:06.712Z,22.84
2022-08-20T04:04:32.883Z,23.03
2022-08-20T04:06:59.098Z,23.18
2022-08-20T04:09:25.344Z,23.29
2022-08-20T04:11:53.112Z,23.38
2022-08-20T04:14:20.463Z,23.50
2022-08-20T04:16:47.105Z,23.63
2022-08-20T04:19:15.650Z,23.77
2022-08-20T04:21:41.914Z,23.91
2022-08-20T04:24:08.309Z,24.03
2022-08-20T04:26:54.330Z,24.15
2022-08-20T04:29:21.235Z,24.24
2022-08-20T04:31:47.953Z,24.16
2022-08-20T04:34:16.062Z,23.78
2022-08-20T04:36:42.517Z,23.36
2022-08-20T04:39:08.672Z,23.04
2022-08-20T04:41:34.845Z,22.79
2022-08-20T04:44:01.548Z,22.71
2022-08-20T04:46:27.822Z,23.00
2022-08-20T04:48:54.450Z,23.31
2022-08-20T04:51:23.432Z,23.50
2022-08-20T04:53:53.661Z,23.60
2022-08-20T04:56:22.911Z,23.66
2022-08-20T04:58:50.435Z,23.77
2022-08-20T05:01:16.734Z,23.85
2022-08-20T05:03:43.286Z,23.90
2022-08-20T05:06:10.236Z,24.02
2022-08-20T05:08:37.800Z,24.10
2022-08-20T05:11:33.182Z,24.19
2022-08-20T05:13:52.269Z,24.19
2022-08-20T05:16:19.076Z,24.28
2022-08-20T05:18:46.123Z,24.29
2022-08-20T05:21:19.805Z,24.35
2022-08-20T05:23:46.008Z,24.35
2022-08-20T05:26:12.406Z,24.41
2022-08-20T05:28:54.287Z,24.48
2022-08-20T05:31:32.229Z,24.51
2022-08-20T05:34:01.455Z,24.59
2022-08-20T05:36:28.758Z,24.56
2022-08-20T05:38:55.543Z,24.59
2022-08-20T05:41:28.462Z,24.56
2022-08-20T05:44:01.913Z,24.59
2022-08-20T05:46:30.391Z,24.57
2022-08-20T05:48:59.462Z,24.56
2022-08-20T05:51:27.229Z,24.61
2022-08-20T05:53:53.389Z,24.69
2022-08-20T05:56:19.663Z,24.71
2022-08-20T05:58:52.901Z,24.78
2022-08-20T06:01:19.409Z,24.82
2022-08-20T06:04:04.286Z,24.86
2022-08-20T06:06:44.134Z,24.90
2022-08-20T06:09:16.591Z,25.00
2022-08-20T06:11:54.788Z,25.05
2022-08-20T06:14:25.873Z,25.10
2022-08-20T06:16:57.868Z,25.19
2022-08-20T06:19:26.386Z,25.32
2022-08-20T06:21:53.208Z,25.40
2022-08-20T06:24:20.588Z,25.44
2022-08-20T06:26:46.945Z,25.54
2022-08-20T06:29:13.151Z,25.65
2022-08-20T06:31:39.979Z,25.79
2022-08-20T06:34:06.801Z,25.74
2022-08-20T06:36:33.744Z,25.67
2022-08-20T06:38:59.941Z,25.65
2022-08-20T06:41:37.015Z,25.59
2022-08-20T06:44:03.925Z,25.52
2022-08-20T06:46:30.126Z,25.54
2022-08-20T06:48:56.474Z,25.66
2022-08-20T06:51:22.754Z,25.70
2022-08-20T06:53:48.938Z,25.80
2022-08-20T06:56:15.893Z,25.90
2022-08-20T06:58:43.329Z,26.07
2022-08-20T07:01:11.261Z,26.22
2022-08-20T07:03:54.247Z,26.36
2022-08-20T07:06:26.275Z,26.50
2022-08-20T07:08:55.134Z,26.65
2022-08-20T07:11:27.205Z,26.82
2022-08-20T07:13:55.116Z,26.88
2022-08-20T07:16:21.303Z,26.97
2022-08-20T07:18:47.552Z,27.12
2022-08-20T07:21:13.732Z,27.27
2022-08-20T07:23:41.671Z,27.46
2022-08-20T07:26:07.942Z,27.53
2022-08-20T07:28:34.122Z,27.26
2022-08-20T07:31:20.415Z,27.02
2022-08-20T07:33:47.222Z,26.85
2022-08-20T07:36:17.046Z,26.94
2022-08-20T07:38:46.139Z,27.42
2022-08-20T07:41:12.701Z,27.92
2022-08-20T07:43:39.200Z,28.32
2022-08-20T07:46:08.784Z,28.51
2022-08-20T07:48:37.816Z,28.49
2022-08-20T07:51:04.411Z,28.53
2022-08-20T07:53:35.623Z,28.65
2022-08-20T07:56:06.735Z,28.73
2022-08-20T07:58:35.152Z,28.80
2022-08-20T08:01:01.846Z,28.84
2022-08-20T08:03:39.527Z,28.89
2022-08-20T08:06:14.847Z,28.86
2022-08-20T08:08:43.566Z,28.80
2022-08-20T08:11:10.002Z,28.89
2022-08-20T08:13:38.725Z,29.06
2022-08-20T08:16:06.021Z,29.19
2022-08-20T08:18:43.147Z,29.38
2022-08-20T08:21:12.228Z,29.55
2022-08-20T08:23:43.440Z,29.61
2022-08-20T08:26:15.960Z,29.64
2022-08-20T08:28:45.103Z,29.53
2022-08-20T08:31:11.560Z,29.45
2022-08-20T08:33:39.993Z,29.42
2022-08-20T08:36:08.922Z,29.57
2022-08-20T08:38:35.669Z,29.67
2022-08-20T08:41:22.176Z,29.82
2022-08-20T08:43:49.816Z,30.03
2022-08-20T08:46:17.994Z,30.25
2022-08-20T08:48:47.074Z,30.34
2022-08-20T08:51:15.538Z,30.34
2022-08-20T08:53:45.410Z,30.79
2022-08-20T08:56:13.633Z,31.77
2022-08-20T08:58:40.871Z,33.06
2022-08-20T09:01:53.045Z,34.51
2022-08-20T09:03:58.216Z,35.96
2022-08-20T09:06:24.755Z,36.53
2022-08-20T09:08:51.089Z,37.32
2022-08-20T09:11:19.177Z,38.07
2022-08-20T09:13:45.797Z,38.81
2022-08-20T09:16:12.392Z,39.67
2022-08-20T09:18:39.033Z,40.22
2022-08-20T09:21:06.789Z,41.00
2022-08-20T09:23:33.083Z,41.79
2022-08-20T09:25:59.231Z,42.71
2022-08-20T09:28:34.805Z,43.33
2022-08-20T09:31:01.772Z,44.24
2022-08-20T09:33:28.411Z,45.08
2022-08-20T09:35:54.771Z,45.83
2022-08-20T09:38:21.169Z,46.27
2022-08-20T09:40:47.474Z,46.82
2022-08-20T09:43:15.055Z,47.12
2022-08-20T09:45:41.371Z,47.50
2022-08-20T09:48:10.171Z,47.40
2022-08-20T09:50:38.373Z,47.19
2022-08-20T09:53:05.804Z,46.88
2022-08-20T09:55:38.691Z,46.14
2022-08-20T09:58:17.599Z,46.40
2022-08-20T10:00:44.111Z,46.12
2022-08-20T10:03:10.408Z,45.98
2022-08-20T10:05:36.637Z,45.84
2022-08-20T10:08:09.689Z,45.96
2022-08-20T10:10:36.001Z,45.86
2022-08-20T10:13:02.666Z,45.30
2022-08-20T10:15:29.518Z,45.38
2022-08-20T10:17:56.710Z,45.70
2022-08-20T10:20:23.388Z,46.07
2022-08-20T10:22:50.608Z,46.12
2022-08-20T10:25:18.228Z,46.03
2022-08-20T10:27:44.734Z,46.27
2022-08-20T10:30:11.359Z,46.66
2022-08-20T10:32:37.547Z,47.13
2022-08-20T10:35:04.140Z,47.71
2022-08-20T10:37:30.776Z,48.02
2022-08-20T10:39:57.745Z,47.96
2022-08-20T10:42:24.075Z,47.70
2022-08-20T10:44:50.412Z,47.35
2022-08-20T10:47:17.994Z,47.03
2022-08-20T10:49:44.350Z,46.62
2022-08-20T10:52:10.913Z,46.30
2022-08-20T10:54:41.344Z,46.03
2022-08-20T10:57:08.815Z,45.60
2022-08-20T10:59:39.034Z,45.11
2022-08-20T11:02:05.376Z,44.37
2022-08-20T11:04:31.752Z,43.71
2022-08-20T11:06:59.242Z,43.26
2022-08-20T11:09:27.928Z,42.78
2022-08-20T11:11:54.245Z,42.13
2022-08-20T11:14:20.697Z,41.67
2022-08-20T11:16:46.989Z,41.43
2022-08-20T11:19:13.252Z,41.15
2022-08-20T11:21:39.432Z,41.05
2022-08-20T11:24:05.709Z,40.97
2022-08-20T11:26:31.965Z,40.94
2022-08-20T11:28:58.343Z,40.82
2022-08-20T11:31:24.539Z,40.55
2022-08-20T11:33:50.841Z,40.13
2022-08-20T11:36:17.156Z,39.69
2022-08-20T11:38:43.708Z,39.42
2022-08-20T11:41:10.047Z,39.04
2022-08-20T11:43:36.265Z,38.64
2022-08-20T11:46:03.412Z,38.24
2022-08-20T11:48:29.910Z,37.85
2022-08-20T11:50:56.488Z,37.55
2022-08-20T11:53:23.157Z,37.30
2022-08-20T11:55:49.590Z,37.05
2022-08-20T11:58:16.681Z,36.74
2022-08-20T12:00:43.214Z,36.48
2022-08-20T12:03:10.402Z,36.33
2022-08-20T12:05:39.554Z,36.27
2022-08-20T12:08:06.003Z,36.08
2022-08-20T12:10:32.456Z,35.84
2022-08-20T12:12:58.923Z,35.48
2022-08-20T12:15:26.882Z,35.09
2022-08-20T12:17:53.856Z,34.86
2022-08-20T12:20:20.153Z,34.74
2022-08-20T12:22:46.520Z,34.59
2022-08-20T12:25:12.927Z,34.42
2022-08-20T12:27:39.374Z,34.21
2022-08-20T12:30:12.988Z,34.08
2022-08-20T12:32:39.475Z,33.97
2022-08-20T12:35:06.775Z,33.92
2022-08-20T12:37:33.224Z,33.82
2022-08-20T12:40:00.482Z,33.73
2022-08-20T12:42:27.060Z,33.70
2022-08-20T12:44:53.321Z,33.61
2022-08-20T12:47:24.309Z,33.50
2022-08-20T12:49:51.997Z,33.33
2022-08-20T12:52:19.393Z,33.22
2022-08-20T12:54:46.149Z,33.09
2022-08-20T12:57:16.389Z,32.94
2022-08-20T12:59:42.634Z,32.74
2022-08-20T13:02:14.363Z,32.51
2022-08-20T13:04:44.767Z,32.36
2022-08-20T13:07:11.999Z,32.22
2022-08-20T13:09:38.605Z,32.14
2022-08-20T13:13:15.040Z,32.08
2022-08-20T13:15:45.335Z,32.10
2022-08-20T13:18:13.091Z,32.03
2022-08-20T13:20:40.937Z,31.93
2022-08-20T13:23:08.903Z,31.78
2022-08-20T13:25:36.670Z,31.69
2022-08-20T13:28:04.923Z,31.65
2022-08-20T13:30:34.883Z,31.62
2022-08-20T13:33:02.874Z,31.55
2022-08-20T13:35:31.231Z,31.51
2022-08-20T13:37:58.892Z,31.51
2022-08-20T13:40:26.764Z,31.44
2022-08-20T13:42:54.673Z,31.38
2022-08-20T13:45:22.656Z,31.41
2022-08-20T13:47:54.389Z,31.46
2022-08-20T13:50:24.270Z,31.50
2022-08-20T13:52:52.101Z,31.44
2022-08-20T13:55:21.807Z,31.39
2022-08-20T13:57:51.233Z,31.40
2022-08-20T14:00:20.676Z,31.41
2022-08-20T14:02:48.326Z,31.41
2022-08-20T14:05:19.340Z,31.40
2022-08-20T14:07:47.715Z,31.40
2022-08-20T14:10:19.538Z,31.41
2022-08-20T14:12:48.234Z,31.39
2022-08-20T14:15:16.293Z,31.37
2022-08-20T14:17:50.748Z,31.35
2022-08-20T14:20:21.283Z,31.38
2022-08-20T14:22:49.282Z,31.44
2022-08-20T14:25:18.824Z,31.51
2022-08-20T14:27:46.711Z,31.58
2022-08-20T14:30:17.699Z,31.58
2022-08-20T14:32:45.439Z,31.59
2022-08-20T14:35:13.638Z,31.63
2022-08-20T14:37:45.774Z,31.61
2022-08-20T14:40:16.056Z,31.55
2022-08-20T14:42:44.539Z,31.53
2022-08-20T14:45:16.472Z,31.51
2022-08-20T14:47:54.000Z,31.47
2022-08-20T14:50:28.052Z,31.44
2022-08-20T14:52:56.808Z,31.43
2022-08-20T14:55:31.415Z,31.46
2022-08-20T14:57:59.232Z,31.47
2022-08-20T15:00:29.714Z,31.48
2022-08-20T15:02:57.862Z,31.46
2022-08-20T15:05:25.967Z,31.47
2022-08-20T15:07:56.561Z,31.49
2022-08-20T15:10:34.281Z,31.55
2022-08-20T15:13:02.796Z,31.70
2022-08-20T15:15:30.443Z,31.81
2022-08-20T15:18:03.484Z,31.89
2022-08-20T15:20:32.994Z,31.92
2022-08-20T15:23:01.080Z,31.90
2022-08-20T15:25:36.481Z,31.81
2022-08-20T15:28:08.749Z,31.69
2022-08-20T15:30:38.963Z,31.54
2022-08-20T15:33:08.104Z,31.40
2022-08-20T15:35:36.021Z,31.27
2022-08-20T15:38:04.322Z,31.11
2022-08-20T15:40:32.715Z,30.98
2022-08-20T15:43:01.251Z,30.85
2022-08-20T15:45:29.591Z,30.70
2022-08-20T15:48:13.684Z,30.55
2022-08-20T15:50:47.450Z,30.39
2022-08-20T15:53:22.982Z,30.22
2022-08-20T15:56:12.975Z,30.08
2022-08-20T15:58:59.098Z,29.99
2022-08-20T16:02:02.890Z,29.91
2022-08-20T16:04:49.257Z,29.82
2022-08-20T16:07:26.746Z,29.77
2022-08-20T16:10:01.726Z,29.71
2022-08-20T16:12:34.256Z,29.66
2022-08-20T16:15:09.531Z,29.61
2022-08-20T16:17:41.532Z,29.54
2022-08-20T16:20:38.742Z,29.47
2022-08-20T16:23:07.082Z,29.39
2022-08-20T16:25:55.749Z,29.32
2022-08-20T16:28:27.950Z,29.25
2022-08-20T16:31:03.589Z,29.17
2022-08-20T16:33:45.366Z,29.09
2022-08-20T16:36:37.786Z,28.98
2022-08-20T16:39:17.330Z,28.87
2022-08-20T16:41:46.782Z,28.77
2022-08-20T16:44:39.289Z,28.66
2022-08-20T16:47:28.132Z,28.53
2022-08-20T16:50:05.684Z,28.42
2022-08-20T16:52:34.152Z,28.31
2022-08-20T16:55:02.796Z,28.20
2022-08-20T16:57:30.542Z,28.08
2022-08-20T17:00:35.167Z,27.96
2022-08-20T17:03:06.732Z,27.82
2022-08-20T17:05:38.734Z,27.69
2022-08-20T17:08:08.704Z,27.58
2022-08-20T17:10:54.847Z,27.47
2022-08-20T17:13:29.255Z,27.36
2022-08-20T17:16:03.914Z,27.24
2022-08-20T17:18:36.678Z,27.13
2022-08-20T17:21:13.108Z,27.01
2022-08-20T17:23:55.980Z,26.91
2022-08-20T17:26:30.733Z,26.80
2022-08-20T17:29:02.743Z,26.69
2022-08-20T17:31:43.783Z,26.60
2022-08-20T17:34:23.217Z,26.50
2022-08-20T17:37:08.940Z,26.40
2022-08-20T17:39:46.380Z,26.30
2022-08-20T17:42:19.247Z,26.21
2022-08-20T17:44:52.673Z,26.11
2022-08-20T17:47:34.134Z,26.02
2022-08-20T17:50:13.180Z,25.93
2022-08-20T17:52:49.546Z,25.84
2022-08-20T17:55:18.548Z,25.75
2022-08-20T17:57:49.807Z,25.67
2022-08-20T18:00:25.699Z,25.58
2022-08-20T18:02:59.605Z,25.51
2022-08-20T18:05:30.693Z,25.42
2022-08-20T18:08:30.609Z,25.33
2022-08-20T18:11:12.362Z,25.25
2022-08-20T18:14:06.081Z,25.17
2022-08-20T18:16:43.711Z,25.09
2022-08-20T18:19:31.743Z,25.01
2022-08-20T18:22:06.915Z,24.94
2022-08-20T18:24:49.344Z,24.86
2022-08-20T18:27:20.539Z,24.80
2022-08-20T18:29:56.946Z,24.74
2022-08-20T18:32:44.315Z,24.67
2022-08-20T18:35:35.011Z,24.62
2022-08-20T18:38:29.364Z,24.56
2022-08-20T18:41:31.179Z,24.51
2022-08-20T18:44:07.930Z,24.47
2022-08-20T18:46:38.955Z,24.45
2022-08-20T18:49:08.579Z,24.42
2022-08-20T18:51:50.940Z,24.48
2022-08-20T18:54:29.085Z,24.99
2022-08-20T18:57:08.947Z,25.38
2022-08-20T18:59:40.996Z,25.23
2022-08-20T19:02:29.299Z,25.00
2022-08-20T19:05:02.358Z,24.80
2022-08-20T19:07:45.720Z,24.67
2022-08-20T19:10:40.576Z,24.54
2022-08-20T19:13:27.674Z,24.58
2022-08-20T19:16:02.357Z,25.08
2022-08-20T19:18:38.863Z,25.48
2022-08-20T19:21:08.949Z,25.80
2022-08-20T19:23:51.059Z,25.84
2022-08-20T19:26:25.389Z,25.49
2022-08-20T19:28:58.287Z,25.16
2022-08-20T19:31:33.795Z,24.93
2022-08-20T19:34:20.233Z,24.73
2022-08-20T19:36:57.083Z,24.56
2022-08-20T19:39:26.637Z,24.43
2022-08-20T19:42:04.616Z,24.41
2022-08-20T19:44:45.107Z,24.81
2022-08-20T19:47:24.413Z,24.80
2022-08-20T19:49:56.611Z,24.57
2022-08-20T19:52:48.005Z,24.40
2022-08-20T19:55:36.751Z,24.40
2022-08-20T19:58:26.107Z,24.87
2022-08-20T20:00:56.337Z,25.01
2022-08-20T20:03:25.680Z,24.76
2022-08-20T20:05:59.819Z,24.52
2022-08-20T20:08:30.561Z,24.32
2022-08-20T20:11:00.558Z,24.17
2022-08-20T20:13:33.273Z,24.14
2022-08-20T20:16:07.564Z,24.56
2022-08-20T20:18:38.026Z,24.92
2022-08-20T20:21:13.530Z,24.82
2022-08-20T20:23:46.956Z,24.50
2022-08-20T20:26:18.043Z,24.24
2022-08-20T20:28:52.993Z,24.15
2022-08-20T20:31:29.587Z,24.50
2022-08-20T20:34:00.003Z,24.84
2022-08-20T20:36:47.805Z,24.73
2022-08-20T20:39:31.944Z,24.37
2022-08-20T20:42:02.420Z,24.08
2022-08-20T20:44:37.107Z,23.99
2022-08-20T20:47:20.799Z,24.37
2022-08-20T20:49:53.222Z,24.74
2022-08-20T20:52:25.614Z,24.89
2022-08-20T20:55:11.911Z,24.68
2022-08-20T20:57:40.462Z,24.28
2022-08-20T21:00:13.707Z,24.10
2022-08-20T21:02:42.092Z,24.37
2022-08-20T21:05:11.561Z,24.54
2022-08-20T21:07:54.657Z,24.26
2022-08-20T21:10:24.919Z,24.06
2022-08-20T21:12:54.635Z,24.35
2022-08-20T21:15:24.639Z,24.61
2022-08-20T21:17:52.608Z,24.56
2022-08-20T21:20:22.407Z,24.23
2022-08-20T21:22:50.176Z,24.02
2022-08-20T21:25:18.923Z,24.27
2022-08-20T21:27:48.974Z,24.58
2022-08-20T21:30:17.247Z,24.76
2022-08-20T21:32:44.980Z,24.69
2022-08-20T21:35:13.457Z,24.32
2022-08-20T21:37:41.483Z,24.09
2022-08-20T21:40:10.673Z,24.32
2022-08-20T21:42:40.137Z,24.61
2022-08-20T21:45:10.697Z,24.68
2022-08-20T21:47:38.591Z,24.33
2022-08-20T21:50:08.010Z,24.09
2022-08-20T21:52:36.239Z,24.31
2022-08-20T21:55:10.337Z,24.60
2022-08-20T21:57:38.326Z,24.80
2022-08-20T22:00:15.147Z,24.96
2022-08-20T22:02:43.184Z,25.06
2022-08-20T22:05:11.520Z,25.16
2022-08-20T22:07:39.214Z,25.24
2022-08-20T22:10:07.478Z,25.29
2022-08-20T22:12:35.415Z,25.32
2022-08-20T22:15:05.361Z,25.33
2022-08-20T22:17:33.153Z,25.33
2022-08-20T22:20:02.361Z,25.34
2022-08-20T22:22:30.953Z,25.33
2022-08-20T22:24:59.021Z,25.29
2022-08-20T22:27:26.965Z,25.25
2022-08-20T22:29:54.676Z,25.21
2022-08-20T22:32:33.400Z,25.19
2022-08-20T22:35:11.861Z,25.15
2022-08-20T22:37:41.361Z,25.10
2022-08-20T22:40:09.931Z,25.05
2022-08-20T22:42:37.917Z,25.00
2022-08-20T22:45:14.654Z,24.95
2022-08-20T22:47:43.241Z,24.90
2022-08-20T22:50:12.707Z,24.84
2022-08-20T22:52:42.148Z,24.78
2022-08-20T22:55:10.556Z,24.77
2022-08-20T22:57:39.636Z,24.76
2022-08-20T23:00:11.874Z,24.77
2022-08-20T23:02:41.812Z,24.72
2022-08-20T23:05:14.972Z,24.66
2022-08-20T23:07:42.976Z,24.60
2022-08-20T23:10:10.873Z,24.59
2022-08-20T23:12:39.049Z,24.56
2022-08-20T23:15:07.647Z,24.54
2022-08-20T23:17:37.919Z,24.57
2022-08-20T23:20:07.753Z,24.60
2022-08-20T23:22:36.111Z,24.62
2022-08-20T23:25:05.416Z,24.64
2022-08-20T23:27:35.877Z,24.65
2022-08-20T23:30:05.055Z,24.67
2022-08-20T23:32:32.727Z,24.67
2022-08-20T23:35:00.479Z,24.63
2022-08-20T23:37:28.732Z,24.61
2022-08-20T23:39:56.493Z,24.60
2022-08-20T23:42:24.640Z,24.57
2022-08-20T23:44:52.370Z,24.54
2022-08-20T23:47:21.557Z,24.52
2022-08-20T23:49:49.664Z,24.47
2022-08-20T23:52:17.660Z,24.43
2022-08-20T23:54:45.598Z,24.35
2022-08-20T23:57:13.480Z,24.25
2022-08-20T23:59:41.765Z,24.19
